Time;durP1;ratioP1;P1;durP2;ratioP2;P2;SDS_P1;SDS_P2;PMS_P1;PMS_P2;Temp;Humidity;BMP_temperature;BMP_pressure;BME280_temperature;BME280_humidity;BME280_pressure;Samples;Min_cycle;Max_cycle;Signal;HPM_P1;HPM_P2
2021/06/03 01:58:58;;;;;;;5.13;1.80;;;;;;;12.14;82.07;101444.41;1739614;80;25733;-59
2021/06/03 02:01:26;;;;;;;6.20;1.70;;;;;;;12.12;82.31;101448.60;1740487;80;33206;-60
2021/06/03 02:08:11;;;;;;;5.67;1.47;;;;;;;12.13;82.28;101446.27;1718987;83;25808;-59
2021/06/03 02:10:41;;;;;;;6.40;1.50;;;;;;;12.06;82.35;101443.70;1727717;82;25404;-59
2021/06/03 02:13:19;;;;;;;9.63;2.10;;;;;;;12.05;82.51;101444.21;1695215;82;27538;-59
2021/06/03 02:15:55;;;;;;;8.70;1.55;;;;;;;12.06;82.57;101446.41;1746877;80;26306;-58
2021/06/03 02:18:32;;;;;;;3.77;1.42;;;;;;;12.07;82.56;101443.23;1748963;81;25475;-59
2021/06/03 02:21:01;;;;;;;6.83;1.82;;;;;;;12.09;82.47;101446.66;1745901;82;26110;-59
2021/06/03 02:23:29;;;;;;;9.25;1.90;;;;;;;12.13;82.32;101450.80;1744781;82;25979;-59
2021/06/03 02:26:02;;;;;;;9.13;1.95;;;;;;;12.18;82.18;101452.62;1748968;81;27432;-59
2021/06/03 02:28:33;;;;;;;12.80;3.25;;;;;;;12.21;82.33;101453.22;1749066;80;25720;-59
2021/06/03 02:31:01;;;;;;;19.07;2.02;;;;;;;12.29;82.24;101451.70;1745174;80;25733;-59
2021/06/03 02:33:31;;;;;;;11.48;2.37;;;;;;;12.34;81.97;101453.03;1743687;81;26442;-59
2021/06/03 02:35:59;;;;;;;10.18;2.05;;;;;;;12.37;81.85;101455.95;1748740;82;25799;-59
2021/06/03 02:38:29;;;;;;;5.17;1.90;;;;;;;12.43;81.77;101454.57;1748952;80;28182;-58
2021/06/03 02:41:01;;;;;;;4.42;1.90;;;;;;;12.47;81.40;101459.58;1746395;81;25777;-59
2021/06/03 02:43:29;;;;;;;5.25;2.02;;;;;;;12.50;81.20;101460.67;1743012;82;26622;-59
2021/06/03 02:45:57;;;;;;;10.78;2.35;;;;;;;12.53;81.16;101460.39;1742195;82;25728;-58
2021/06/03 02:48:24;;;;;;;4.85;1.95;;;;;;;12.53;81.01;101454.99;1743349;80;25482;-58
2021/06/03 02:50:51;;;;;;;7.75;2.02;;;;;;;12.55;80.85;101459.41;1735525;82;27480;-59
2021/06/03 02:53:19;;;;;;;9.03;2.87;;;;;;;12.58;80.79;101463.20;1743281;82;27198;-59
2021/06/03 02:55:48;;;;;;;3.50;1.80;;;;;;;12.60;80.59;101463.89;1742944;82;26397;-58
2021/06/03 02:58:16;;;;;;;7.30;2.15;;;;;;;12.63;80.61;101467.69;1724026;80;25745;-59
2021/06/03 03:00:45;;;;;;;8.28;2.75;;;;;;;12.65;80.54;101454.92;1747507;81;25766;-59
2021/06/03 03:03:13;;;;;;;10.93;2.20;;;;;;;12.72;80.26;101464.70;1753198;81;29549;-58
2021/06/03 03:05:43;;;;;;;9.35;3.00;;;;;;;12.77;80.53;101465.14;1753320;80;25767;-58
2021/06/03 03:08:13;;;;;;;5.78;2.10;;;;;;;12.79;80.01;101467.22;1754178;81;25782;-59
2021/06/03 03:10:44;;;;;;;4.90;2.20;;;;;;;12.80;79.95;101458.14;1735280;82;25711;-57
2021/06/03 03:13:13;;;;;;;7.85;2.00;;;;;;;12.80;79.66;101457.63;1722335;82;25831;-59
2021/06/03 03:15:42;;;;;;;10.70;4.10;;;;;;;12.80;79.59;101460.33;1732437;82;27479;-59
2021/06/03 03:18:09;;;;;;;14.98;7.60;;;;;;;12.80;79.56;101463.54;1730171;82;25799;-59
2021/06/03 03:20:37;;;;;;;13.40;7.15;;;;;;;12.87;79.64;101459.78;1713568;82;25750;-59
2021/06/03 03:23:08;;;;;;;11.65;2.40;;;;;;;12.91;79.52;101462.08;1702152;83;25744;-59
2021/06/03 03:25:38;;;;;;;10.28;2.22;;;;;;;12.97;79.36;101465.61;1748724;82;25840;-59
2021/06/03 03:28:08;;;;;;;4.17;2.27;;;;;;;13.01;78.61;101464.84;1746251;82;27453;-59
2021/06/03 03:30:42;;;;;;;7.97;2.47;;;;;;;13.04;78.80;101467.77;1726164;82;25480;-59
2021/06/03 03:33:16;;;;;;;10.28;2.33;;;;;;;13.09;78.61;101469.08;1718509;83;25481;-60
2021/06/03 03:35:47;;;;;;;14.87;2.42;;;;;;;13.13;78.64;101463.74;1732237;82;25706;-59
2021/06/03 03:38:17;;;;;;;8.05;3.08;;;;;;;13.17;78.27;101465.70;1736438;81;25738;-59
2021/06/03 03:40:45;;;;;;;7.83;2.52;;;;;;;13.20;78.06;101462.71;1748399;82;27443;-60
2021/06/03 03:43:12;;;;;;;10.68;2.58;;;;;;;13.24;76.67;101466.86;1697356;83;25742;-60
2021/06/03 03:45:39;;;;;;;5.70;2.05;;;;;;;13.26;76.56;101470.29;1718428;82;25684;-60
2021/06/03 03:48:07;;;;;;;9.40;3.00;;;;;;;13.26;76.57;101471.64;1733208;82;26183;-62
2021/06/03 03:50:37;;;;;;;8.50;2.62;;;;;;;13.26;76.70;101466.23;1747983;80;25746;-61
2021/06/03 03:53:07;;;;;;;6.87;2.67;;;;;;;13.29;76.15;101463.75;1725844;82;27080;-61
2021/06/03 03:55:34;;;;;;;5.92;2.27;;;;;;;13.31;76.00;101469.88;1718287;82;25774;-60
2021/06/03 03:58:03;;;;;;;8.13;2.80;;;;;;;13.30;76.65;101462.77;1730100;82;25626;-60
2021/06/03 04:00:33;;;;;;;4.75;2.52;;;;;;;13.35;76.77;101469.11;1746116;81;25800;-60
2021/06/03 04:03:03;;;;;;;13.05;2.80;;;;;;;13.41;76.76;101468.58;1728172;82;25796;-60
2021/06/03 04:05:31;;;;;;;9.13;2.83;;;;;;;13.45;76.97;101476.27;1717513;82;27464;-61
2021/06/03 04:07:59;;;;;;;6.05;2.60;;;;;;;13.54;77.09;101479.14;1742797;82;25681;-60
2021/06/03 04:10:27;;;;;;;9.00;3.35;;;;;;;13.61;76.66;101478.45;1748083;82;25631;-59
2021/06/03 04:12:54;;;;;;;13.35;2.62;;;;;;;13.72;76.90;101478.83;1746313;82;25749;-60
2021/06/03 04:15:22;;;;;;;7.25;2.77;;;;;;;13.85;77.00;101481.27;1725140;82;25748;-60
2021/06/03 04:17:50;;;;;;;8.25;2.87;;;;;;;14.00;77.12;101484.42;1684728;83;27331;-60
2021/06/03 04:20:22;;;;;;;10.35;3.05;;;;;;;14.15;76.73;101482.16;1695214;84;25898;-60
2021/06/03 04:22:51;;;;;;;12.90;2.70;;;;;;;14.24;76.43;101479.07;1696584;83;25880;-60
2021/06/03 04:25:21;;;;;;;5.15;2.98;;;;;;;14.32;76.27;101488.67;1695102;84;26202;-60
2021/06/03 04:27:49;;;;;;;3.30;2.62;;;;;;;14.44;76.15;101480.41;1706617;84;25796;-60
2021/06/03 04:30:20;;;;;;;3.77;2.15;;;;;;;14.58;75.92;101480.47;1689848;83;27517;-60
2021/06/03 04:32:49;;;;;;;5.50;2.85;;;;;;;14.59;72.29;101481.67;1731395;82;25787;-60
2021/06/03 04:35:19;;;;;;;10.45;2.60;;;;;;;14.61;73.62;101485.60;1717878;83;25787;-61
2021/06/03 04:37:48;;;;;;;8.28;2.87;;;;;;;14.66;73.82;101480.11;1743780;82;26322;-60
2021/06/03 04:40:19;;;;;;;8.90;2.62;;;;;;;14.64;71.55;101483.94;1719020;82;25895;-60
2021/06/03 04:42:47;;;;;;;7.42;2.87;;;;;;;14.61;72.02;101479.67;1718289;83;27464;-59
2021/06/03 04:45:17;;;;;;;12.30;2.67;;;;;;;14.60;71.98;101479.83;1744825;82;25916;-60
2021/06/03 04:47:45;;;;;;;6.85;2.62;;;;;;;14.58;71.22;101481.82;1725181;82;25830;-60
2021/06/03 04:50:19;;;;;;;6.22;2.40;;;;;;;14.52;71.69;101480.55;1745877;82;26132;-59
2021/06/03 04:52:47;;;;;;;7.72;2.70;;;;;;;14.52;72.24;101485.45;1748186;82;26020;-59
2021/06/03 04:55:22;;;;;;;5.33;2.65;;;;;;;14.58;72.67;101486.72;1747708;82;27106;-59
2021/06/03 04:57:52;;;;;;;10.00;3.20;;;;;;;14.51;71.46;101495.95;1744358;80;28115;-59
2021/06/03 05:00:27;;;;;;;6.78;2.70;;;;;;;14.45;71.42;101492.95;1720025;82;25562;-58
2021/06/03 05:02:55;;;;;;;10.40;2.80;;;;;;;14.40;71.39;101493.39;1745510;82;26140;-59
2021/06/03 05:05:24;;;;;;;7.28;2.85;;;;;;;14.38;71.47;101498.08;1733136;82;25756;-59
2021/06/03 05:07:52;;;;;;;6.72;2.87;;;;;;;14.35;71.51;101496.52;1731153;82;27525;-59
2021/06/03 05:10:19;;;;;;;6.17;3.47;;;;;;;14.41;71.83;101493.75;1733168;82;25752;-59
2021/06/03 05:12:47;;;;;;;15.78;3.27;;;;;;;14.45;71.68;101497.02;1744531;82;25650;-59
2021/06/03 05:15:17;;;;;;;7.90;2.87;;;;;;;14.48;71.01;101496.22;1746402;81;26285;-59
2021/06/03 05:17:45;;;;;;;7.17;3.15;;;;;;;14.52;70.06;101498.14;1747208;80;25771;-59
2021/06/03 05:20:16;;;;;;;10.53;3.95;;;;;;;14.51;69.96;101499.14;1713466;82;27469;-59
2021/06/03 05:22:46;;;;;;;8.83;3.52;;;;;;;14.51;70.27;101500.48;1745073;80;25531;-59
2021/06/03 05:25:18;;;;;;;9.55;2.50;;;;;;;14.54;70.26;101492.09;1744647;81;25839;-59
2021/06/03 05:27:45;;;;;;;3.90;2.62;;;;;;;14.57;69.92;101498.55;1705438;83;26189;-59
2021/06/03 05:30:15;;;;;;;12.13;3.47;;;;;;;14.57;70.17;101497.19;1745703;82;25701;-59
2021/06/03 05:32:43;;;;;;;6.87;2.47;;;;;;;14.60;70.32;101499.62;1748311;82;27470;-59
2021/06/03 05:35:14;;;;;;;6.97;2.27;;;;;;;14.69;70.71;101497.43;1742759;80;26196;-59
2021/06/03 05:37:42;;;;;;;6.72;3.02;;;;;;;14.73;69.43;101500.70;1726573;82;25772;-59
2021/06/03 05:40:13;;;;;;;6.03;2.37;;;;;;;14.80;69.60;101501.81;1753349;80;26356;-59
2021/06/03 05:42:40;;;;;;;10.03;3.00;;;;;;;14.84;69.44;101510.02;1743061;81;25735;-59
2021/06/03 05:45:11;;;;;;;8.95;2.85;;;;;;;14.90;68.50;101514.00;1743319;82;28358;-60
2021/06/03 05:47:38;;;;;;;3.08;2.00;;;;;;;14.99;68.74;101514.48;1745867;81;25906;-60
2021/06/03 05:50:10;;;;;;;4.53;2.47;;;;;;;15.10;68.19;101520.73;1723552;82;25848;-59
2021/06/03 05:52:39;;;;;;;6.28;2.45;;;;;;;15.20;67.86;101521.52;1738916;82;25648;-59
2021/06/03 05:55:09;;;;;;;12.50;2.77;;;;;;;15.36;68.63;101516.83;1745843;80;25831;-58
2021/06/03 05:57:37;;;;;;;11.12;2.35;;;;;;;15.51;67.89;101517.70;1748171;81;27564;-59
2021/06/03 06:00:14;;;;;;;6.85;1.85;;;;;;;15.64;67.43;101517.67;1747025;81;25680;-58
2021/06/03 06:03:02;;;;;;;15.72;2.50;;;;;;;15.81;67.42;101518.73;1750038;81;25755;-59
2021/06/03 06:08:14;;;;;;;4.92;2.12;;;;;;;16.07;65.82;101518.53;1724348;82;25782;-59
2021/06/03 06:10:43;;;;;;;8.35;2.58;;;;;;;16.20;65.82;101532.55;1715758;82;27439;-59
2021/06/03 06:13:11;;;;;;;9.08;3.60;;;;;;;16.20;64.37;101516.78;1703928;83;25847;-59
2021/06/03 06:15:40;;;;;;;5.70;2.33;;;;;;;16.21;64.46;101518.50;1706549;83;25707;-59
2021/06/03 06:18:09;;;;;;;14.25;2.62;;;;;;;16.27;63.56;101512.44;1695228;83;26446;-59
2021/06/03 06:20:38;;;;;;;7.00;2.50;;;;;;;16.33;63.89;101516.39;1707267;84;25794;-59
2021/06/03 06:23:05;;;;;;;5.90;2.42;;;;;;;16.34;64.26;101516.23;1694739;84;27497;-59
2021/06/03 06:25:32;;;;;;;14.05;4.40;;;;;;;16.37;63.48;101515.05;1699335;84;25736;-60
2021/06/03 06:27:59;;;;;;;16.05;4.10;;;;;;;16.35;64.17;101512.51;1697362;84;26364;-60
2021/06/03 06:30:28;;;;;;;7.25;2.25;;;;;;;16.39;64.26;101517.98;1705701;84;25755;-59
2021/06/03 06:32:55;;;;;;;9.68;2.60;;;;;;;16.45;63.76;101513.77;1695403;84;25810;-59
2021/06/03 06:35:23;;;;;;;13.35;2.62;;;;;;;16.54;63.20;101518.26;1748434;82;27503;-59
2021/06/03 06:37:50;;;;;;;6.47;2.33;;;;;;;16.59;63.31;101522.73;1732923;82;25774;-59
2021/06/03 06:40:17;;;;;;;6.97;2.72;;;;;;;16.77;62.84;101522.33;1718197;83;25735;-59
2021/06/03 06:42:45;;;;;;;8.25;1.90;;;;;;;16.91;62.90;101521.77;1718206;83;25740;-59
2021/06/03 06:45:14;;;;;;;12.00;2.00;;;;;;;17.11;61.89;101518.34;1718385;83;25736;-59
2021/06/03 06:47:41;;;;;;;8.73;2.12;;;;;;;17.28;60.41;101525.23;1717169;82;27477;-59
2021/06/03 06:50:09;;;;;;;6.90;2.22;;;;;;;17.34;60.03;101521.88;1720665;82;27212;-60
2021/06/03 06:52:37;;;;;;;14.63;2.37;;;;;;;17.35;60.60;101525.79;1718238;83;25738;-59
2021/06/03 06:55:09;;;;;;;7.78;1.90;;;;;;;17.35;59.63;101521.70;1718035;82;25706;-59
2021/06/03 06:57:37;;;;;;;4.12;1.77;;;;;;;17.39;58.91;101521.39;1718961;82;25745;-60
2021/06/03 07:00:10;;;;;;;9.23;2.12;;;;;;;17.40;58.87;101525.80;1716903;83;27387;-59
2021/06/03 07:02:38;;;;;;;10.30;2.47;;;;;;;17.31;58.73;101531.19;1716788;81;25699;-58
2021/06/03 07:05:08;;;;;;;13.55;2.33;;;;;;;17.26;59.58;101528.13;1740431;81;25783;-59
2021/06/03 07:07:36;;;;;;;9.75;2.20;;;;;;;17.29;58.89;101536.45;1734369;82;26405;-59
2021/06/03 07:10:06;;;;;;;11.35;2.05;;;;;;;17.27;58.95;101534.39;1712051;83;25706;-59
2021/06/03 07:12:34;;;;;;;6.37;2.10;;;;;;;17.27;58.76;101537.12;1736995;82;27438;-59
2021/06/03 07:15:04;;;;;;;7.12;1.98;;;;;;;17.28;58.93;101533.39;1740910;82;26378;-59
2021/06/03 07:17:30;;;;;;;8.23;2.33;;;;;;;17.34;57.90;101535.48;1738276;82;25871;-59
2021/06/03 07:19:57;;;;;;;14.20;2.58;;;;;;;17.42;58.40;101531.92;1735627;81;25760;-59
2021/06/03 07:22:24;;;;;;;5.15;2.08;;;;;;;17.53;58.17;101536.56;1703826;83;25930;-59
2021/06/03 07:24:51;;;;;;;5.40;2.33;;;;;;;17.63;58.63;101532.37;1683770;83;27532;-59
2021/06/03 07:27:18;;;;;;;8.45;2.10;;;;;;;17.78;58.56;101532.59;1734494;82;25453;-59
2021/06/03 07:29:45;;;;;;;9.13;2.00;;;;;;;17.93;58.12;101530.06;1705951;82;25761;-59
2021/06/03 07:32:12;;;;;;;8.20;2.40;;;;;;;18.05;57.37;101532.02;1736184;81;25797;-59
2021/06/03 07:34:39;;;;;;;14.18;5.60;;;;;;;18.20;56.91;101542.23;1733963;80;27261;-59
2021/06/03 07:37:06;;;;;;;8.65;1.80;;;;;;;18.31;57.16;101544.65;1738082;82;27378;-59
2021/06/03 07:39:33;;;;;;;11.68;2.17;;;;;;;18.49;57.12;101541.75;1709645;82;25709;-59
2021/06/03 07:42:00;;;;;;;7.60;2.50;;;;;;;18.57;55.49;101541.75;1739504;82;25807;-59
2021/06/03 07:44:27;;;;;;;7.75;2.22;;;;;;;18.75;55.56;101544.31;1701653;83;26545;-59
2021/06/03 07:46:54;;;;;;;7.97;2.27;;;;;;;18.87;55.70;101552.98;1746296;80;25856;-59
2021/06/03 07:49:20;;;;;;;7.67;2.83;;;;;;;18.97;55.63;101548.73;1715667;81;27484;-59
2021/06/03 07:51:47;;;;;;;8.03;2.00;;;;;;;19.13;55.46;101551.11;1756235;80;25780;-59
2021/06/03 07:54:14;;;;;;;8.53;3.02;;;;;;;19.23;54.23;101547.66;1709022;81;25808;-59
2021/06/03 07:56:41;;;;;;;4.97;2.02;;;;;;;19.36;53.59;101541.15;1734913;82;25771;-59
2021/06/03 07:59:08;;;;;;;14.58;2.15;;;;;;;19.43;54.55;101547.25;1734856;82;25709;-59
2021/06/03 08:01:35;;;;;;;10.13;2.30;;;;;;;19.50;54.45;101543.66;1740337;81;28200;-59
2021/06/03 08:04:02;;;;;;;4.30;2.12;;;;;;;19.60;53.93;101549.42;1739471;81;25761;-59
2021/06/03 08:06:29;;;;;;;5.47;2.10;;;;;;;19.76;53.38;101545.78;1702063;82;25746;-59
2021/06/03 08:08:55;;;;;;;11.53;1.77;;;;;;;19.81;53.07;101544.71;1740868;81;25698;-59
2021/06/03 08:11:22;;;;;;;7.42;1.92;;;;;;;19.79;53.45;101550.86;1710943;83;25791;-60
2021/06/03 08:13:49;;;;;;;7.45;2.25;;;;;;;19.85;53.05;101551.03;1726238;82;27491;-59
2021/06/03 08:16:18;;;;;;;5.47;2.52;;;;;;;19.93;52.99;101546.05;1736537;81;25740;-60
2021/06/03 08:18:45;;;;;;;3.45;1.90;;;;;;;20.08;52.42;101548.84;1740778;81;25843;-60
2021/06/03 08:21:13;;;;;;;6.12;1.90;;;;;;;20.22;52.06;101545.84;1701533;82;25858;-60
2021/06/03 08:23:40;;;;;;;2.50;1.65;;;;;;;20.42;51.64;101552.20;1703945;82;25840;-60
2021/06/03 08:26:07;;;;;;;6.30;1.87;;;;;;;20.53;50.19;101538.12;1740629;82;27513;-60
2021/06/03 08:28:34;;;;;;;2.50;2.10;;;;;;;20.68;50.72;101546.36;1701961;82;25795;-59
2021/06/03 08:31:01;;;;;;;5.97;1.70;;;;;;;20.89;50.90;101545.69;1738507;82;25703;-60
2021/06/03 08:33:29;;;;;;;9.88;1.98;;;;;;;21.04;49.46;101547.08;1740979;81;25740;-60
2021/06/03 08:35:57;;;;;;;6.85;1.70;;;;;;;21.11;49.62;101548.02;1752507;81;25812;-60
2021/06/03 08:38:24;;;;;;;3.10;1.30;;;;;;;21.22;48.40;101547.23;1701880;84;28157;-62
2021/06/03 08:40:56;;;;;;;12.00;3.05;;;;;;;21.22;48.09;101548.60;1683308;84;25809;-60
2021/06/03 08:43:31;;;;;;;10.43;2.47;;;;;;;21.14;48.53;101553.63;1674798;84;26806;-60
2021/06/03 08:46:01;;;;;;;10.65;1.92;;;;;;;21.15;48.44;101550.39;1700619;82;26698;-60
2021/06/03 08:48:29;;;;;;;11.78;2.12;;;;;;;21.14;48.95;101553.63;1736691;81;25823;-60
2021/06/03 08:51:00;;;;;;;4.60;1.85;;;;;;;21.23;48.47;101553.04;1707619;82;27469;-60
2021/06/03 08:53:28;;;;;;;10.63;2.05;;;;;;;21.31;48.16;101552.08;1737456;81;25712;-60
2021/06/03 08:58:51;;;;;;;5.28;1.80;;;;;;;21.42;47.19;101550.25;1703382;84;26361;-60
2021/06/03 09:01:20;;;;;;;7.08;1.95;;;;;;;21.43;46.61;101542.37;1700891;83;25730;-60
2021/06/03 09:03:47;;;;;;;11.50;1.92;;;;;;;21.41;47.04;101538.46;1696802;82;27456;-59
2021/06/03 09:06:16;;;;;;;5.08;1.87;;;;;;;21.48;47.62;101538.53;1702916;83;25740;-60
2021/06/03 09:09:01;;;;;;;4.87;2.00;;;;;;;21.58;45.77;101537.75;1740776;81;25755;-61
2021/06/03 09:11:31;;;;;;;10.20;1.82;;;;;;;21.65;44.36;101541.95;1738911;81;25696;-61
2021/06/03 09:14:06;;;;;;;6.50;2.30;;;;;;;21.79;44.79;101548.95;1739972;82;25905;-61
2021/06/03 09:16:37;;;;;;;3.10;1.40;;;;;;;21.87;42.47;101548.86;1740955;81;27279;-61
2021/06/03 09:19:13;;;;;;;8.80;2.70;;;;;;;21.98;41.03;101550.25;1740151;82;26544;-60
2021/06/03 09:21:52;;;;;;;12.93;2.08;;;;;;;22.13;40.70;101554.31;1703976;82;25859;-61
2021/06/03 09:24:22;;;;;;;4.28;1.57;;;;;;;22.32;41.69;101541.85;1701159;84;26333;-61
2021/06/03 09:26:56;;;;;;;10.70;1.80;;;;;;;22.63;40.65;101535.22;1648923;85;25811;-61
2021/06/03 09:29:32;;;;;;;5.40;1.70;;;;;;;22.83;39.81;101541.70;1691809;84;27475;-61
2021/06/03 09:32:08;;;;;;;11.73;1.85;;;;;;;23.08;38.46;101541.27;1692725;84;25730;-61
2021/06/03 09:34:39;;;;;;;7.65;2.40;;;;;;;23.23;36.35;101539.78;1643508;87;25810;-59
2021/06/03 09:37:09;;;;;;;6.05;1.60;;;;;;;23.35;36.89;101532.36;1697165;84;25758;-59
2021/06/03 09:39:44;;;;;;;6.22;1.92;;;;;;;23.51;38.04;101533.92;1740436;81;25889;-59
2021/06/03 09:42:15;;;;;;;2.35;1.20;;;;;;;23.63;35.61;101539.67;1744336;81;28155;-59
2021/06/03 09:44:52;;;;;;;10.05;1.27;;;;;;;23.72;37.25;101540.66;1702379;84;25692;-59
2021/06/03 09:47:23;;;;;;;7.83;1.92;;;;;;;23.94;32.77;101526.83;1703262;82;25724;-59
2021/06/03 09:49:58;;;;;;;7.12;1.40;;;;;;;24.09;35.08;101546.41;1740567;81;25720;-59
2021/06/03 09:52:29;;;;;;;8.45;1.80;;;;;;;24.41;33.43;101549.44;1701341;82;25754;-60
2021/06/03 09:55:04;;;;;;;3.40;1.50;;;;;;;24.58;31.80;101536.97;1684021;84;27570;-60
2021/06/03 09:57:35;;;;;;;3.22;1.15;;;;;;;24.76;31.73;101539.11;1682903;84;25802;-59
2021/06/03 10:00:09;;;;;;;5.53;1.40;;;;;;;24.90;31.03;101523.97;1741190;82;25736;-60
2021/06/03 10:02:40;;;;;;;6.62;1.55;;;;;;;24.97;30.07;101538.56;1746130;81;25831;-60
2021/06/03 10:05:18;;;;;;;4.10;1.40;;;;;;;24.90;29.49;101535.81;1754139;81;25811;-60
2021/06/03 10:08:00;;;;;;;5.40;1.47;;;;;;;24.66;30.91;101546.39;1718891;83;28188;-60
2021/06/03 10:10:31;;;;;;;3.45;0.90;;;;;;;24.27;30.15;101541.70;1755428;81;25898;-59
2021/06/03 10:13:06;;;;;;;10.35;1.35;;;;;;;23.77;31.23;101549.66;1717661;83;25852;-60
2021/06/03 10:15:40;;;;;;;4.83;1.37;;;;;;;23.28;31.16;101546.91;1715378;83;26498;-60
2021/06/03 10:18:11;;;;;;;5.15;1.70;;;;;;;22.88;30.76;101542.47;1694913;84;25798;-59
2021/06/03 10:20:46;;;;;;;9.15;1.65;;;;;;;22.48;32.29;101558.60;1718220;82;27431;-60
2021/06/03 10:23:23;;;;;;;5.35;1.17;;;;;;;22.20;33.60;101553.33;1705369;83;25858;-60
2021/06/03 10:26:05;;;;;;;9.35;1.60;;;;;;;22.64;32.75;101554.21;1697381;83;25745;-60
2021/06/03 10:28:33;;;;;;;8.10;1.10;;;;;;;23.50;30.84;101544.05;1707922;84;25701;-60
2021/06/03 10:31:07;;;;;;;6.00;1.50;;;;;;;23.35;29.90;101555.19;1707959;84;25737;-60
2021/06/03 10:33:35;;;;;;;3.22;1.30;;;;;;;23.14;31.58;101547.31;1707695;84;28198;-60
2021/06/03 10:36:06;;;;;;;2.98;1.20;;;;;;;24.07;29.12;101552.12;1705022;83;25815;-60
2021/06/03 10:38:34;;;;;;;4.78;1.47;;;;;;;24.84;27.94;101557.31;1695379;84;25546;-60
2021/06/03 10:41:06;;;;;;;7.35;1.60;;;;;;;25.54;28.36;101540.80;1695554;84;25775;-60
2021/06/03 10:43:36;;;;;;;3.83;1.35;;;;;;;26.24;28.24;101545.00;1695381;83;25741;-60
2021/06/03 10:46:06;;;;;;;8.10;2.15;;;;;;;26.50;28.89;101556.08;1705474;84;27518;-60
2021/06/03 10:48:33;;;;;;;2.10;1.27;;;;;;;26.29;28.18;101555.91;1695361;84;25760;-59
2021/06/03 10:51:07;;;;;;;2.25;1.30;;;;;;;26.25;27.01;101558.27;1695319;84;25740;-59
2021/06/03 10:53:46;;;;;;;5.37;1.30;;;;;;;25.59;27.76;101561.64;1697446;84;25653;-60
2021/06/03 10:56:21;;;;;;;3.98;1.27;;;;;;;25.30;27.92;101561.05;1680565;84;25729;-60
2021/06/03 10:58:53;;;;;;;7.62;1.62;;;;;;;25.92;27.33;101557.88;1679270;85;27457;-60
2021/06/03 11:01:24;;;;;;;9.53;1.87;;;;;;;26.52;26.53;101550.64;1678561;84;25851;-60
2021/06/03 11:04:00;;;;;;;6.92;1.90;;;;;;;26.31;27.36;101552.41;1682616;84;25738;-60
2021/06/03 11:06:29;;;;;;;7.75;2.15;;;;;;;26.85;28.15;101559.19;1696976;84;25849;-60
2021/06/03 11:09:02;;;;;;;2.55;1.25;;;;;;;27.01;26.55;101557.78;1702244;84;25494;-60
2021/06/03 11:11:47;;;;;;;7.40;1.40;;;;;;;26.78;26.11;101558.41;1705169;84;27494;-60
2021/06/03 11:14:18;;;;;;;5.47;1.07;;;;;;;26.45;26.10;101546.26;1680423;84;25876;-60
2021/06/03 11:16:49;;;;;;;8.18;1.80;;;;;;;26.25;27.72;101562.41;1676906;85;25559;-60
2021/06/03 11:19:23;;;;;;;14.90;2.12;;;;;;;26.53;28.05;101549.58;1676719;85;25755;-60
2021/06/03 11:21:53;;;;;;;6.85;1.50;;;;;;;26.38;27.29;101550.44;1684994;84;25788;-60
2021/06/03 11:24:38;;;;;;;7.00;1.22;;;;;;;26.42;27.24;101554.42;1685456;84;27475;-60
2021/06/03 11:27:15;;;;;;;12.53;2.20;;;;;;;26.18;26.84;101564.34;1676748;85;25852;-60
2021/06/03 11:29:54;;;;;;;8.30;1.30;;;;;;;25.88;28.47;101569.88;1676477;85;25772;-60
2021/06/03 11:32:35;;;;;;;13.68;1.40;;;;;;;26.81;28.90;101564.02;1678744;84;26336;-60
2021/06/03 11:35:07;;;;;;;5.80;1.37;;;;;;;28.18;26.91;101552.94;1692573;84;25826;-60
2021/06/03 11:37:43;;;;;;;9.78;1.65;;;;;;;29.36;25.26;101559.99;1679729;84;27482;-61
2021/06/03 11:40:23;;;;;;;8.85;1.42;;;;;;;29.82;24.67;101557.88;1676674;85;25471;-60
2021/06/03 11:43:06;;;;;;;9.10;1.10;;;;;;;29.76;24.14;101561.12;1704805;84;25729;-60
2021/06/03 11:45:43;;;;;;;;;;;;;;;29.17;24.91;101570.91;1708029;84;25843;-60
2021/06/03 11:48:16;;;;;;;7.25;1.27;;;;;;;28.32;24.93;101566.03;1705059;84;25728;-60
2021/06/03 11:50:47;;;;;;;13.05;1.65;;;;;;;27.44;26.52;101565.77;1705334;84;28190;-60
2021/06/03 11:53:19;;;;;;;5.28;1.27;;;;;;;27.27;27.37;101564.66;1697361;84;25802;-60
2021/06/03 11:55:52;;;;;;;3.05;1.00;;;;;;;27.48;27.79;101561.45;1705425;84;25737;-60
2021/06/03 11:58:32;;;;;;;4.57;1.20;;;;;;;27.62;26.24;101559.37;1705561;84;27574;-60
2021/06/03 12:01:19;;;;;;;13.40;2.15;;;;;;;27.33;26.09;101548.01;1704373;84;25730;-61
2021/06/03 12:03:48;;;;;;;4.00;1.52;;;;;;;26.70;27.34;101558.67;1716463;83;27900;-61
2021/06/03 12:06:29;;;;;;;10.68;1.42;;;;;;;25.92;27.49;101560.64;1718641;83;25771;-60
2021/06/03 12:09:24;;;;;;;7.92;1.60;;;;;;;25.23;28.86;101555.58;1718710;83;25791;-61
2021/06/03 12:11:55;;;;;;;6.00;1.45;;;;;;;24.80;28.58;101562.40;1718451;83;25752;-61
2021/06/03 12:14:26;;;;;;;10.48;2.08;;;;;;;24.72;28.45;101559.86;1718061;83;25705;-61
2021/06/03 12:17:08;;;;;;;9.20;2.27;;;;;;;24.95;28.11;101554.44;1718185;83;27565;-61
2021/06/03 12:19:51;;;;;;;8.15;1.12;;;;;;;24.85;28.13;101563.97;1718395;83;25847;-61
2021/06/03 12:22:18;;;;;;;6.72;2.05;;;;;;;24.72;29.02;101558.48;1717438;83;25675;-61
2021/06/03 12:24:53;;;;;;;12.63;2.40;;;;;;;24.45;29.24;101557.06;1718740;83;25788;-61
2021/06/03 12:27:34;;;;;;;4.20;1.77;;;;;;;24.23;30.90;101557.23;1718340;83;25723;-62
2021/06/03 12:30:22;;;;;;;6.08;1.20;;;;;;;24.52;30.47;101556.53;1718518;83;28332;-64
2021/06/03 12:33:31;;;;;;;7.85;2.05;;;;;;;25.89;27.22;101554.20;1717803;83;26440;-63
2021/06/03 12:36:01;;;;;;;8.35;1.95;;;;;;;26.12;27.62;101552.83;1714895;83;26147;-61
2021/06/03 12:38:32;;;;;;;9.35;2.50;;;;;;;26.81;27.44;101557.98;1715008;83;25800;-61
2021/06/03 12:41:04;;;;;;;12.15;2.67;;;;;;;27.24;26.58;101551.28;1718194;82;25720;-61
2021/06/03 12:43:42;;;;;;;18.50;4.08;;;;;;;26.96;28.02;101556.77;1717742;83;27511;-61
2021/06/03 12:46:11;;;;;;;15.30;2.47;;;;;;;26.66;28.55;101555.52;1718586;83;26172;-61
2021/06/03 12:48:38;;;;;;;5.33;2.87;;;;;;;26.43;28.63;101551.15;1718940;83;25898;-61
2021/06/03 12:51:14;;;;;;;9.43;4.45;;;;;;;26.15;29.19;101560.12;1718624;83;25823;-60
2021/06/03 12:53:49;;;;;;;14.68;1.82;;;;;;;25.88;29.98;101564.91;1718139;83;25727;-60
2021/06/03 12:56:23;;;;;;;10.50;2.10;;;;;;;25.55;29.87;101562.60;1718368;83;27413;-61
2021/06/03 12:58:53;;;;;;;2.10;1.30;;;;;;;25.05;29.09;101569.16;1718313;83;25834;-61
2021/06/03 13:01:21;;;;;;;8.98;1.50;;;;;;;24.76;29.16;101568.53;1717379;83;25783;-60
2021/06/03 13:03:59;;;;;;;8.18;1.82;;;;;;;24.73;29.61;101570.33;1695150;83;25707;-60
2021/06/03 13:06:26;;;;;;;6.83;2.62;;;;;;;24.84;29.33;101573.28;1697310;84;26094;-60
2021/06/03 13:09:00;;;;;;;7.62;1.77;;;;;;;25.05;29.55;101558.98;1697431;84;28138;-60
2021/06/03 13:11:38;;;;;;;6.53;1.50;;;;;;;25.27;28.97;101569.76;1696459;84;25791;-60
2021/06/03 13:14:20;;;;;;;5.42;2.05;;;;;;;25.22;29.09;101563.52;1740163;82;25782;-60
2021/06/03 13:16:54;;;;;;;5.78;1.98;;;;;;;25.00;28.04;101561.55;1740717;82;25696;-60
2021/06/03 13:19:23;;;;;;;11.40;3.70;;;;;;;24.77;28.68;101571.06;1738148;82;25803;-60
2021/06/03 13:21:56;;;;;;;12.05;2.85;;;;;;;24.55;30.86;101573.14;1733916;82;27459;-60
2021/06/03 13:24:27;;;;;;;17.25;4.42;;;;;;;24.43;29.33;101577.05;1737450;81;34338;-60
2021/06/03 13:27:04;;;;;;;6.75;2.30;;;;;;;24.30;30.82;101565.50;1737461;81;25778;-60
2021/06/03 13:29:42;;;;;;;8.45;2.50;;;;;;;24.45;29.80;101572.70;1701940;82;25765;-60
2021/06/03 13:32:09;;;;;;;11.97;2.50;;;;;;;24.66;30.97;101577.16;1739921;82;25800;-60
2021/06/03 13:34:45;;;;;;;9.13;2.15;;;;;;;25.29;29.82;101573.98;1697783;84;27344;-60
2021/06/03 13:37:17;;;;;;;11.60;3.98;;;;;;;26.40;29.31;101567.62;1701022;84;25809;-60
2021/06/03 13:39:50;;;;;;;5.67;2.62;;;;;;;26.72;27.91;101573.09;1740874;81;25793;-60
2021/06/03 13:42:24;;;;;;;5.15;1.50;;;;;;;26.85;28.52;101581.28;1734154;80;25652;-60
2021/06/03 13:45:06;;;;;;;5.75;2.87;;;;;;;27.06;27.00;101571.45;1740892;80;25798;-61
2021/06/03 13:47:59;;;;;;;9.20;2.85;;;;;;;27.20;27.04;101566.64;1739330;81;27531;-64
2021/06/03 13:50:49;;;;;;;4.78;1.80;;;;;;;27.01;27.06;101581.80;1735330;82;25296;-64